Decoded Metar for KRME (ROME in NY, USA) (IATA:RME) | Meteo·Mobile Aviation Weather
aviador You're here:

KRME Decoded Metar

ROME in NY, USA
Report Time2018-12-16 02:53:00
UTC Time2018-12-16 03:38:11
Flight Rules vfr VFR
Wind150° at 03 kt
W.Decomp.*RWY 15: 2.9 kt HW 0.7 kt RCW
W.Rank150° ranks 16
Current wind is below 150° avg. (5.6)
Visibility9999 m
Phenomena:N/A
Clouds:N/A
Expected CloudBase > 400 ft AGL from Temp-Dew spread
CeilingNone
Temp-1°C (ISA -15)
Dew Point-2°C (93% RH)
AAT-4.3°C
QNH1024 hPa
Density Alt-1,631 ft
Elevation505 ft
Report Wrong Elevation
Raw Report
KRME 160253Z AUTO 15003KT 10SM CLR M01/M02 A3025 RMK AO2 SLP248
T10111017 51013=

Extra information for KRME:More info

Metar Taf Metar & Taf Last 4 Metars F.Rules Stats Wind Profile Meteogram Temp Stats Airport Information Weather charts Add Link Nearby VenuesMetar ALERT Operation Metar Decoded Social comments

AIRNAV info for KRME